Hauptseite
METAR-TAF:

METAR-TAF

Flughäfen :

Flughafen Mailand-Malpensa

Mailand, Italien

Breite: 45-37N, Länge: 008-44E, Höhe: 234 m

Beobachtung

Neuester Wetterbericht von vor 18 Minuten, um 04:20 UTC
Wind 5 kt aus Nord
Temperatur -1°C
Luftfeuchtigkeit 93%
Luftdruck 1028 hPa
Sichtweite: 6000 m

METAR: LIMC 170420Z 36005KT 6000 NSC M01/M02 Q1028 NOSIG

Zeit: 05:38 (04:38 UTC)

Prognose

Neuester Wetterbericht von vor 5 Stunden und 38 Minuten, um 23:00 UTC
Gültige Prognose vom 17 um 00 UTC bis 18 um 06 UTC
Wind 5 kt aus unterschiedlichen Richtungen
Sichtweite: 6000 m
Zeitweise
vom 17 um 00 UTC bis 17 um 08 UTC
Sichtweite: 2000 m
Nebelschwaden

TAF: LIMC 162300Z 1700/1806 VRB05KT 6000 TEMPO 1700/1708 2000 BCFG

Wetterbeobachtungen und Prognosen von mehr als 4000 Flughäfen (METAR und TAF Bericht).

Die verfügbaren Stationen werden durch gelbe und rote Markierungen auf der Karte dargestellt.

Führen Sie die Maus auf sie, um den Namen der Station zu sehen.

Darauf klicken, um die Beobachtung von Wetterbeobachtungen und Prognosen zu sehen.

Um die Karte zu ändern : klicken Sie auf den grünen Tasten mit einem schwarzen Kreuz Zum Vergrößern, auf den grünen Button mit einem Gedankenstrich zu verkleinern, oder auf die grünen Pfeile für benachbarte Karten.


METAR-TAF: